createdAt,value
2022-09-07T03:56:30.304Z,78.29
2022-09-07T03:59:33.113Z,78.29
2022-09-07T04:02:35.240Z,79.39
2022-09-07T04:05:37.699Z,79.27
2022-09-07T04:08:40.385Z,79.00
2022-09-07T04:11:42.753Z,78.73
2022-09-07T04:14:44.823Z,78.53
2022-09-07T04:17:47.813Z,78.39
2022-09-07T04:20:50.768Z,78.78
2022-09-07T04:23:53.326Z,78.56
2022-09-07T04:26:55.505Z,77.76
2022-09-07T04:29:57.833Z,77.49
2022-09-07T04:32:59.900Z,77.55
2022-09-07T04:36:02.827Z,77.98
2022-09-07T04:39:05.852Z,77.19
2022-09-07T04:42:08.164Z,77.05
2022-09-07T04:45:10.637Z,76.54
2022-09-07T04:48:12.986Z,76.88
2022-09-07T04:51:16.110Z,77.43
2022-09-07T04:54:18.442Z,76.63
2022-09-07T04:57:25.830Z,76.55
2022-09-07T05:00:28.881Z,76.37
2022-09-07T05:03:32.282Z,75.83
2022-09-07T05:06:34.649Z,75.90
2022-09-07T05:09:36.726Z,75.43
2022-09-07T05:12:39.241Z,75.87
2022-09-07T05:15:41.573Z,75.15
2022-09-07T05:18:44.681Z,74.77
2022-09-07T05:21:46.781Z,74.96
2022-09-07T05:24:49.310Z,74.65
2022-09-07T05:27:51.466Z,73.48
2022-09-07T05:34:31.640Z,72.87
2022-09-07T05:37:34.513Z,72.16
2022-09-07T05:40:40.488Z,71.99
2022-09-07T05:47:06.273Z,71.68
2022-09-07T05:50:09.264Z,72.62
2022-09-07T05:53:11.335Z,71.30
2022-09-07T05:56:13.917Z,71.39
2022-09-07T05:59:16.041Z,70.79
2022-09-07T06:02:18.863Z,69.04
2022-09-07T06:05:21.487Z,69.88
2022-09-07T06:08:23.577Z,69.59
2022-09-07T06:11:27.221Z,69.39
2022-09-07T06:14:29.290Z,68.96
2022-09-07T06:17:31.621Z,69.00
2022-09-07T06:20:33.709Z,68.91
2022-09-07T06:23:37.781Z,68.62
2022-09-07T06:26:39.979Z,68.53
2022-09-07T06:29:42.726Z,68.03
2022-09-07T06:32:45.220Z,68.42
2022-09-07T06:35:58.736Z,68.47
2022-09-07T06:39:03.696Z,67.95
2022-09-07T06:42:06.263Z,67.55
2022-09-07T06:45:13.317Z,68.25
2022-09-07T06:48:15.777Z,67.89
2022-09-07T06:51:20.721Z,66.55
2022-09-07T06:57:45.623Z,66.61
2022-09-07T07:00:48.032Z,67.36
2022-09-07T07:03:53.720Z,67.04
2022-09-07T07:06:55.937Z,67.68
2022-09-07T07:09:57.893Z,66.87
2022-09-07T07:13:00.250Z,66.85
2022-09-07T07:16:05.095Z,66.75
2022-09-07T07:19:07.554Z,66.72
2022-09-07T07:25:34.604Z,66.72
2022-09-07T07:31:59.023Z,66.61
2022-09-07T07:35:01.437Z,66.92
2022-09-07T07:48:17.182Z,65.72
2022-09-07T07:51:20.381Z,65.89
2022-09-07T07:54:22.849Z,66.12
2022-09-07T07:57:25.154Z,65.05
2022-09-07T08:00:37.770Z,64.35
2022-09-07T08:03:49.641Z,65.50
2022-09-07T08:06:52.303Z,64.32
2022-09-07T08:09:54.616Z,64.19
2022-09-07T08:12:57.027Z,65.73
2022-09-07T08:15:59.608Z,64.03
2022-09-07T08:19:01.935Z,63.55
2022-09-07T08:22:04.554Z,64.26
2022-09-07T08:25:07.381Z,63.89
2022-09-07T08:28:09.720Z,63.42
2022-09-07T08:31:14.165Z,62.82
2022-09-07T08:34:16.804Z,63.88
2022-09-07T08:37:18.818Z,63.98
2022-09-07T08:40:21.179Z,63.72
2022-09-07T08:43:49.782Z,63.89
2022-09-07T08:46:58.692Z,62.48
2022-09-07T08:50:09.706Z,62.50
2022-09-07T08:53:17.356Z,63.23
2022-09-07T08:56:33.609Z,62.27
2022-09-07T08:59:51.461Z,62.63
2022-09-07T09:06:31.836Z,61.96
2022-09-07T09:09:54.274Z,62.92
2022-09-07T09:13:18.363Z,62.98
2022-09-07T09:16:24.638Z,62.17
2022-09-07T09:19:58.289Z,63.04
2022-09-07T09:23:12.394Z,62.18
2022-09-07T09:26:24.651Z,61.82
2022-09-07T09:29:26.711Z,64.52
2022-09-07T09:32:52.958Z,64.81
2022-09-07T09:36:00.460Z,63.16
2022-09-07T09:39:32.460Z,61.66
2022-09-07T09:42:35.740Z,62.32
2022-09-07T09:49:22.398Z,60.91
2022-09-07T09:52:28.885Z,61.77
2022-09-07T09:55:36.405Z,60.84
2022-09-07T10:05:54.325Z,60.31
2022-09-07T10:09:01.889Z,57.03
2022-09-07T10:12:06.700Z,58.32
2022-09-07T10:15:26.622Z,56.82
2022-09-07T10:18:35.462Z,57.30
2022-09-07T10:21:37.533Z,58.01
2022-09-07T10:24:40.522Z,58.08
2022-09-07T10:27:45.869Z,57.04
2022-09-07T10:31:18.673Z,56.98
2022-09-07T10:34:33.715Z,57.26
2022-09-07T10:37:42.385Z,58.11
2022-09-07T10:40:53.144Z,56.81
2022-09-07T10:43:56.864Z,57.39
2022-09-07T10:47:26.089Z,55.35
2022-09-07T10:50:39.516Z,57.04
2022-09-07T10:54:34.833Z,56.37
2022-09-07T10:57:40.369Z,55.78
2022-09-07T11:01:07.165Z,56.47
2022-09-07T11:04:29.044Z,54.81
2022-09-07T11:08:01.883Z,55.98
2022-09-07T11:11:11.421Z,56.60
2022-09-07T11:14:21.633Z,54.76
2022-09-07T11:17:28.369Z,55.19
2022-09-07T11:20:37.433Z,55.15
2022-09-07T11:23:44.550Z,54.99
2022-09-07T11:26:57.720Z,55.72
2022-09-07T11:30:12.547Z,55.36
2022-09-07T11:33:26.720Z,54.51
2022-09-07T11:36:36.525Z,54.81
2022-09-07T11:39:48.175Z,54.18
2022-09-07T11:43:14.797Z,51.84
2022-09-07T11:46:26.809Z,53.99
2022-09-07T11:49:31.144Z,53.68
2022-09-07T11:52:43.077Z,53.14
2022-09-07T11:55:49.897Z,53.29
2022-09-07T11:59:00.734Z,52.30
2022-09-07T12:02:57.651Z,53.31
2022-09-07T12:06:11.439Z,53.26
2022-09-07T12:09:53.405Z,52.36
2022-09-07T12:13:23.392Z,53.22
2022-09-07T12:16:36.108Z,52.69
2022-09-07T12:19:39.022Z,53.25
2022-09-07T12:23:07.334Z,54.49
2022-09-07T12:26:34.705Z,53.83
2022-09-07T12:29:37.193Z,54.01
2022-09-07T12:32:56.822Z,53.86
2022-09-07T12:36:02.163Z,54.48
2022-09-07T12:39:19.522Z,54.84
2022-09-07T12:42:36.954Z,54.71
2022-09-07T12:45:39.823Z,54.80
2022-09-07T12:48:48.677Z,54.32
2022-09-07T12:52:15.765Z,54.85
2022-09-07T12:55:28.314Z,55.19
2022-09-07T12:58:37.534Z,55.67
2022-09-07T13:02:00.439Z,54.18
2022-09-07T13:05:44.526Z,54.21
2022-09-07T13:09:08.310Z,54.98
2022-09-07T13:16:05.085Z,55.15
2022-09-07T13:19:14.429Z,54.46
2022-09-07T13:22:35.415Z,54.30
2022-09-07T13:25:37.725Z,52.76
2022-09-07T13:28:56.310Z,53.80
2022-09-07T13:32:15.826Z,52.83
2022-09-07T13:35:24.338Z,52.72
2022-09-07T13:38:29.510Z,53.03
2022-09-07T13:41:41.101Z,53.19
2022-09-07T13:44:53.040Z,53.70
2022-09-07T13:48:12.656Z,53.37
2022-09-07T13:51:39.576Z,53.38
2022-09-07T13:55:20.740Z,53.56
2022-09-07T13:58:34.796Z,54.10
2022-09-07T14:01:45.015Z,53.90
2022-09-07T14:04:51.399Z,52.60
2022-09-07T14:07:53.456Z,51.15
2022-09-07T14:10:55.869Z,52.09
2022-09-07T14:14:16.417Z,52.67
2022-09-07T14:17:19.407Z,51.97
2022-09-07T14:20:23.259Z,51.34
2022-09-07T14:23:34.865Z,52.84
2022-09-07T14:26:45.762Z,51.38
2022-09-07T14:29:48.273Z,53.48
2022-09-07T14:32:53.914Z,52.09
2022-09-07T14:35:57.873Z,51.33
2022-09-07T14:39:05.714Z,51.40
2022-09-07T14:42:11.872Z,51.25
2022-09-07T14:45:22.921Z,52.47
2022-09-07T14:48:32.434Z,52.76
2022-09-07T14:51:37.256Z,51.32
